Time;durP1;ratioP1;P1;durP2;ratioP2;P2;SDS_P1;SDS_P2;PMS_P1;PMS_P2;Temp;Humidity;BMP_temperature;BMP_pressure;BME280_temperature;BME280_humidity;BME280_pressure;Samples;Min_cycle;Max_cycle;Signal;HPM_P1;HPM_P2
2023/09/19 00:00:59;;;;;;;11.50;1.88;;;;;;;;;;5028765;28;20029;-71
2023/09/19 00:03:25;;;;;;;12.18;2.03;;;;;;;;;;5028075;28;20079;-72
2023/09/19 00:05:50;;;;;;;8.43;2.47;;;;;;;;;;5024480;28;20052;-71
2023/09/19 00:08:16;;;;;;;6.75;2.33;;;;;;;;;;5021552;28;20026;-71
2023/09/19 00:10:41;;;;;;;13.40;4.63;;;;;;;;;;5027393;28;20021;-72
2023/09/19 00:13:07;;;;;;;9.13;1.90;;;;;;;;;;5027162;28;20064;-71
2023/09/19 00:15:40;;;;;;;7.22;1.92;;;;;;;;;;5027993;28;20036;-71
2023/09/19 00:18:09;;;;;;;6.15;2.08;;;;;;;;;;5027243;28;20025;-71
2023/09/19 00:20:38;;;;;;;6.22;2.25;;;;;;;;;;5026425;28;20021;-71
2023/09/19 00:23:04;;;;;;;6.65;1.77;;;;;;;;;;5031260;28;20048;-71
2023/09/19 00:25:29;;;;;;;11.80;3.00;;;;;;;;;;5028485;28;20021;-71
2023/09/19 00:27:55;;;;;;;11.60;5.18;;;;;;;;;;5025267;28;20026;-71
2023/09/19 00:30:21;;;;;;;14.55;6.35;;;;;;;;;;5025873;28;20013;-72
2023/09/19 00:32:49;;;;;;;17.67;6.85;;;;;;;;;;5031653;28;20108;-71
2023/09/19 00:35:18;;;;;;;17.45;6.35;;;;;;;;;;5028979;28;20014;-71
2023/09/19 00:37:44;;;;;;;12.73;3.38;;;;;;;;;;5026730;28;20022;-71
2023/09/19 00:40:12;;;;;;;8.95;2.72;;;;;;;;;;5025659;28;20071;-71
2023/09/19 00:42:38;;;;;;;7.03;2.08;;;;;;;;;;5028275;28;20047;-71
2023/09/19 00:45:05;;;;;;;9.35;2.92;;;;;;;;;;5026923;28;20017;-72
2023/09/19 00:47:30;;;;;;;8.57;2.28;;;;;;;;;;5028244;28;20100;-71
2023/09/19 00:49:55;;;;;;;4.43;1.93;;;;;;;;;;5025125;28;20439;-71
2023/09/19 00:52:21;;;;;;;8.48;1.88;;;;;;;;;;5028854;28;20009;-71
2023/09/19 00:54:47;;;;;;;10.50;2.03;;;;;;;;;;5029918;28;20045;-71
2023/09/19 00:57:12;;;;;;;12.63;2.53;;;;;;;;;;5030792;28;20066;-71
2023/09/19 00:59:37;;;;;;;8.27;1.55;;;;;;;;;;5031407;28;20076;-71
2023/09/19 01:02:03;;;;;;;8.25;1.58;;;;;;;;;;5031572;28;20039;-71
2023/09/19 01:04:29;;;;;;;7.82;2.10;;;;;;;;;;5034557;28;20013;-71
2023/09/19 01:06:54;;;;;;;12.65;1.95;;;;;;;;;;5030251;28;20539;-71
2023/09/19 01:09:20;;;;;;;9.23;1.83;;;;;;;;;;5031366;28;20017;-71
2023/09/19 01:11:47;;;;;;;10.23;3.05;;;;;;;;;;5030886;28;20041;-71
2023/09/19 01:14:12;;;;;;;21.95;9.45;;;;;;;;;;5029223;28;20029;-71
2023/09/19 01:16:58;;;;;;;13.18;6.90;;;;;;;;;;5033242;28;20025;-71
2023/09/19 01:19:46;;;;;;;16.40;5.10;;;;;;;;;;5003279;28;20587;-71
2023/09/19 01:22:25;;;;;;;13.77;3.28;;;;;;;;;;5032427;28;20036;-71
2023/09/19 01:24:50;;;;;;;8.85;2.38;;;;;;;;;;5029776;28;20021;-71
2023/09/19 01:27:16;;;;;;;8.27;2.78;;;;;;;;;;5030577;28;20032;-71
2023/09/19 01:29:46;;;;;;;9.90;2.20;;;;;;;;;;5026174;28;20030;-71
2023/09/19 01:32:14;;;;;;;11.10;2.47;;;;;;;;;;5029738;28;20268;-71
2023/09/19 01:34:50;;;;;;;10.43;2.65;;;;;;;;;;5029816;28;20024;-71
2023/09/19 01:37:25;;;;;;;7.25;2.08;;;;;;;;;;5033316;28;20075;-71
2023/09/19 01:39:53;;;;;;;14.95;3.75;;;;;;;;;;5026919;28;20029;-71
2023/09/19 01:42:25;;;;;;;16.00;2.80;;;;;;;;;;5029804;28;20383;-71
2023/09/19 01:44:55;;;;;;;8.65;2.63;;;;;;;;;;5028102;28;20028;-71
2023/09/19 01:47:27;;;;;;;10.82;3.05;;;;;;;;;;5025796;28;20025;-71
2023/09/19 01:50:02;;;;;;;11.10;3.22;;;;;;;;;;5029628;28;20472;-71
2023/09/19 01:52:29;;;;;;;10.07;3.45;;;;;;;;;;5029336;28;20447;-71
2023/09/19 01:54:59;;;;;;;13.25;4.15;;;;;;;;;;5031936;28;20021;-71
2023/09/19 01:57:34;;;;;;;12.65;5.90;;;;;;;;;;5031465;28;20018;-71
2023/09/19 02:00:06;;;;;;;20.05;5.10;;;;;;;;;;5028863;28;20790;-71
2023/09/19 02:02:32;;;;;;;20.60;4.65;;;;;;;;;;5034609;28;20029;-71
2023/09/19 02:04:57;;;;;;;14.15;4.35;;;;;;;;;;5032282;28;20031;-71
2023/09/19 02:07:22;;;;;;;11.20;2.60;;;;;;;;;;5032726;28;20029;-71
2023/09/19 02:09:48;;;;;;;14.23;2.53;;;;;;;;;;5031469;28;20396;-71
2023/09/19 02:12:15;;;;;;;11.57;2.55;;;;;;;;;;5032507;28;20014;-71
2023/09/19 02:14:40;;;;;;;6.50;2.00;;;;;;;;;;5037154;28;20108;-71
2023/09/19 02:17:06;;;;;;;21.30;2.53;;;;;;;;;;5033887;28;20187;-71
2023/09/19 02:19:33;;;;;;;12.90;2.35;;;;;;;;;;5030321;28;20044;-71
2023/09/19 02:21:58;;;;;;;17.42;2.70;;;;;;;;;;5030796;28;20033;-71
2023/09/19 02:24:24;;;;;;;9.82;1.90;;;;;;;;;;5033437;28;20384;-71
2023/09/19 02:26:49;;;;;;;10.95;1.98;;;;;;;;;;5029760;28;20503;-71
2023/09/19 02:29:14;;;;;;;12.03;2.30;;;;;;;;;;5028157;28;20371;-71
2023/09/19 02:31:39;;;;;;;6.75;2.28;;;;;;;;;;5030071;28;20010;-71
2023/09/19 02:34:06;;;;;;;13.82;2.95;;;;;;;;;;5030048;28;20063;-71
2023/09/19 02:36:32;;;;;;;12.10;1.88;;;;;;;;;;5029042;28;20432;-71
2023/09/19 02:38:57;;;;;;;13.93;2.33;;;;;;;;;;5030120;28;20025;-71
2023/09/19 02:41:22;;;;;;;10.30;2.45;;;;;;;;;;5025198;28;20287;-71
2023/09/19 02:43:47;;;;;;;12.77;2.40;;;;;;;;;;5027286;28;20100;-71
2023/09/19 02:46:13;;;;;;;7.47;2.00;;;;;;;;;;5028055;28;20033;-71
2023/09/19 02:48:38;;;;;;;10.40;2.40;;;;;;;;;;5026859;28;20228;-71
2023/09/19 02:51:03;;;;;;;17.55;2.08;;;;;;;;;;5021377;28;20056;-71
2023/09/19 02:53:30;;;;;;;11.70;1.70;;;;;;;;;;5029045;28;20063;-71
2023/09/19 02:55:56;;;;;;;19.30;2.22;;;;;;;;;;5029182;28;20025;-71
2023/09/19 02:58:21;;;;;;;12.00;2.30;;;;;;;;;;5031438;28;20480;-71
2023/09/19 03:00:47;;;;;;;17.38;2.30;;;;;;;;;;5029049;28;20430;-71
2023/09/19 03:03:13;;;;;;;13.30;2.17;;;;;;;;;;5030513;28;20033;-71
2023/09/19 03:05:38;;;;;;;14.02;2.63;;;;;;;;;;5030873;28;20021;-71
2023/09/19 03:08:04;;;;;;;12.60;2.58;;;;;;;;;;5029275;28;21354;-71
2023/09/19 03:10:30;;;;;;;7.15;2.00;;;;;;;;;;5031262;28;20017;-71
2023/09/19 03:12:57;;;;;;;11.32;2.25;;;;;;;;;;5031105;28;20025;-71
2023/09/19 03:15:22;;;;;;;6.28;2.08;;;;;;;;;;5030542;28;20492;-71
2023/09/19 03:17:48;;;;;;;16.47;2.90;;;;;;;;;;5028597;28;20245;-71
2023/09/19 03:20:13;;;;;;;17.73;4.85;;;;;;;;;;5029710;28;20284;-71
2023/09/19 03:22:39;;;;;;;17.55;4.07;;;;;;;;;;5032024;28;20520;-71
2023/09/19 03:25:07;;;;;;;24.98;4.80;;;;;;;;;;5028141;28;20032;-71
2023/09/19 03:27:33;;;;;;;20.45;5.82;;;;;;;;;;5027902;28;20014;-71
2023/09/19 03:29:58;;;;;;;13.82;4.53;;;;;;;;;;5025291;28;20021;-71
2023/09/19 03:32:24;;;;;;;18.40;4.30;;;;;;;;;;5025695;28;20385;-71
2023/09/19 03:34:49;;;;;;;20.33;3.00;;;;;;;;;;5026521;28;20279;-71
2023/09/19 03:37:14;;;;;;;19.08;3.33;;;;;;;;;;5011283;28;20029;-71
2023/09/19 03:39:39;;;;;;;9.68;1.90;;;;;;;;;;5029019;28;20033;-71
2023/09/19 03:42:05;;;;;;;10.63;2.05;;;;;;;;;;5028718;28;20529;-71
2023/09/19 03:44:30;;;;;;;9.65;1.90;;;;;;;;;;5032223;28;20095;-71
2023/09/19 03:46:56;;;;;;;14.73;2.67;;;;;;;;;;5028118;28;20032;-71
2023/09/19 03:49:21;;;;;;;20.08;3.97;;;;;;;;;;5025041;28;20018;-71
2023/09/19 03:51:46;;;;;;;11.68;1.95;;;;;;;;;;5025630;28;20029;-71
2023/09/19 03:54:12;;;;;;;4.83;1.70;;;;;;;;;;5029947;28;20048;-71
2023/09/19 03:56:37;;;;;;;14.43;2.13;;;;;;;;;;5033906;28;20025;-71
2023/09/19 03:59:02;;;;;;;9.87;2.03;;;;;;;;;;5029281;28;20037;-71
2023/09/19 04:01:28;;;;;;;12.00;1.87;;;;;;;;;;5026273;28;20026;-71
2023/09/19 04:03:53;;;;;;;14.63;1.90;;;;;;;;;;5024064;28;20280;-71
2023/09/19 04:06:18;;;;;;;6.60;1.63;;;;;;;;;;5029795;28;20421;-71
2023/09/19 04:08:44;;;;;;;16.92;2.08;;;;;;;;;;5030239;28;20041;-71
2023/09/19 04:11:09;;;;;;;11.23;2.42;;;;;;;;;;5030283;28;20059;-71
2023/09/19 04:13:34;;;;;;;11.02;2.45;;;;;;;;;;5031049;28;20025;-71
2023/09/19 04:16:00;;;;;;;12.68;2.72;;;;;;;;;;5024635;28;20596;-71
2023/09/19 04:18:25;;;;;;;10.33;2.53;;;;;;;;;;5028745;28;20109;-71
2023/09/19 04:20:50;;;;;;;13.05;2.40;;;;;;;;;;5024473;28;20267;-71
2023/09/19 04:23:16;;;;;;;12.97;2.83;;;;;;;;;;5024489;28;20057;-71
2023/09/19 04:25:41;;;;;;;23.42;2.95;;;;;;;;;;5022608;28;20275;-71
2023/09/19 04:28:07;;;;;;;12.33;2.27;;;;;;;;;;5028989;28;20021;-71
2023/09/19 04:30:32;;;;;;;12.52;2.10;;;;;;;;;;5023611;28;20381;-71
2023/09/19 04:32:57;;;;;;;14.87;2.07;;;;;;;;;;5027999;28;20033;-70
2023/09/19 04:35:22;;;;;;;13.13;2.43;;;;;;;;;;5028721;28;20088;-70
2023/09/19 04:37:48;;;;;;;16.77;3.17;;;;;;;;;;5028498;28;20034;-71
2023/09/19 04:40:17;;;;;;;20.60;4.07;;;;;;;;;;5028069;28;20341;-71
2023/09/19 04:42:43;;;;;;;10.40;2.40;;;;;;;;;;5029028;28;20047;-71
2023/09/19 04:45:09;;;;;;;12.02;1.90;;;;;;;;;;5028784;28;20475;-70
2023/09/19 04:47:35;;;;;;;14.77;2.47;;;;;;;;;;5028095;28;20017;-71
2023/09/19 04:50:00;;;;;;;17.17;2.08;;;;;;;;;;5027077;28;20435;-70
2023/09/19 04:52:25;;;;;;;8.23;1.90;;;;;;;;;;5022108;28;20037;-70
2023/09/19 04:54:50;;;;;;;10.90;1.92;;;;;;;;;;5021752;28;20037;-70
2023/09/19 04:57:15;;;;;;;9.57;2.80;;;;;;;;;;5017619;28;20578;-71
2023/09/19 04:59:41;;;;;;;13.03;2.20;;;;;;;;;;5027783;28;20080;-71
2023/09/19 05:02:07;;;;;;;11.43;1.80;;;;;;;;;;5029086;28;21443;-71
2023/09/19 05:04:33;;;;;;;7.97;1.75;;;;;;;;;;5029372;28;20074;-70
2023/09/19 05:06:58;;;;;;;8.05;1.65;;;;;;;;;;5029173;28;20041;-71
2023/09/19 05:09:23;;;;;;;15.50;3.45;;;;;;;;;;5028625;28;20030;-71
2023/09/19 05:11:49;;;;;;;22.07;2.57;;;;;;;;;;5029482;28;20053;-70
2023/09/19 05:14:14;;;;;;;11.02;2.10;;;;;;;;;;5026421;28;20029;-70
2023/09/19 05:16:40;;;;;;;10.60;1.60;;;;;;;;;;5030906;28;20146;-70
2023/09/19 05:19:05;;;;;;;12.93;1.98;;;;;;;;;;5027887;28;20287;-70
2023/09/19 05:21:31;;;;;;;16.58;1.98;;;;;;;;;;5028520;28;20021;-70
2023/09/19 05:23:56;;;;;;;14.25;3.95;;;;;;;;;;5029876;28;20025;-71
2023/09/19 05:26:21;;;;;;;8.57;1.73;;;;;;;;;;5028766;28;20104;-70
2023/09/19 05:28:48;;;;;;;13.82;2.42;;;;;;;;;;5018619;28;20112;-71
2023/09/19 05:31:14;;;;;;;21.55;2.83;;;;;;;;;;5021692;28;20025;-70
2023/09/19 05:33:39;;;;;;;11.05;2.78;;;;;;;;;;5018760;28;20467;-70
2023/09/19 05:36:04;;;;;;;28.05;3.15;;;;;;;;;;5019221;28;20040;-70
2023/09/19 05:38:30;;;;;;;20.38;2.28;;;;;;;;;;5015492;28;20089;-70
2023/09/19 05:40:56;;;;;;;10.45;2.38;;;;;;;;;;5015716;28;20428;-70
2023/09/19 05:43:21;;;;;;;19.00;2.28;;;;;;;;;;5026510;28;20048;-70
2023/09/19 05:45:46;;;;;;;15.30;2.05;;;;;;;;;;5023750;28;20068;-70
2023/09/19 05:48:13;;;;;;;13.83;1.80;;;;;;;;;;5022664;28;20704;-71
2023/09/19 05:50:38;;;;;;;8.18;1.88;;;;;;;;;;5024229;28;20015;-71
2023/09/19 05:53:04;;;;;;;13.43;2.05;;;;;;;;;;5024303;28;20166;-70
2023/09/19 05:55:29;;;;;;;10.18;2.35;;;;;;;;;;5018230;28;20013;-70
2023/09/19 05:57:55;;;;;;;18.63;2.50;;;;;;;;;;5019033;28;20037;-71
2023/09/19 06:00:22;;;;;;;10.07;2.42;;;;;;;;;;5021171;28;20162;-70
2023/09/19 06:02:52;;;;;;;10.10;2.25;;;;;;;;;;5027473;28;20112;-70
2023/09/19 06:05:17;;;;;;;22.43;3.73;;;;;;;;;;5026455;28;20029;-70
2023/09/19 06:07:42;;;;;;;10.50;2.70;;;;;;;;;;5027900;28;20276;-71
2023/09/19 06:10:08;;;;;;;10.60;2.47;;;;;;;;;;5027792;28;20032;-70
2023/09/19 06:12:35;;;;;;;16.60;2.80;;;;;;;;;;5028115;28;20091;-70
2023/09/19 06:15:00;;;;;;;18.27;2.70;;;;;;;;;;5024001;28;20013;-70
2023/09/19 06:17:28;;;;;;;13.35;3.03;;;;;;;;;;5020068;28;20096;-71
2023/09/19 06:19:53;;;;;;;13.73;2.05;;;;;;;;;;5027083;28;20080;-70
2023/09/19 06:22:18;;;;;;;19.42;2.45;;;;;;;;;;5028086;28;20422;-70
2023/09/19 06:24:44;;;;;;;11.45;1.98;;;;;;;;;;5025917;28;20487;-70
2023/09/19 06:27:09;;;;;;;19.77;2.35;;;;;;;;;;5027434;28;20033;-70
2023/09/19 06:29:35;;;;;;;14.73;3.10;;;;;;;;;;5022630;28;20017;-70
2023/09/19 06:32:00;;;;;;;5.35;1.90;;;;;;;;;;5024692;28;20111;-70
2023/09/19 06:34:26;;;;;;;12.85;4.25;;;;;;;;;;5025717;28;20083;-70
2023/09/19 06:36:51;;;;;;;13.47;2.27;;;;;;;;;;5025965;28;20029;-70
2023/09/19 06:39:16;;;;;;;18.67;2.65;;;;;;;;;;5022252;28;20280;-70
2023/09/19 06:41:42;;;;;;;12.45;1.90;;;;;;;;;;5027435;28;20064;-70
2023/09/19 06:44:07;;;;;;;24.47;2.90;;;;;;;;;;5026520;28;20017;-70
2023/09/19 06:46:34;;;;;;;14.07;2.97;;;;;;;;;;5021523;28;20328;-70
2023/09/19 06:49:00;;;;;;;17.33;2.40;;;;;;;;;;5023861;28;20551;-70
2023/09/19 06:51:25;;;;;;;15.77;2.70;;;;;;;;;;5028436;28;20026;-70
2023/09/19 06:53:54;;;;;;;16.33;2.00;;;;;;;;;;5027591;28;20499;-70
2023/09/19 06:56:19;;;;;;;18.27;2.65;;;;;;;;;;5026086;28;20476;-70
2023/09/19 06:58:45;;;;;;;19.83;2.95;;;;;;;;;;5023204;28;20025;-70
2023/09/19 07:01:10;;;;;;;11.07;1.63;;;;;;;;;;5023730;28;20495;-70
2023/09/19 07:03:36;;;;;;;8.60;1.90;;;;;;;;;;5028865;28;20026;-70
2023/09/19 07:06:04;;;;;;;17.65;2.17;;;;;;;;;;5028514;28;20634;-70
2023/09/19 07:08:30;;;;;;;10.27;1.35;;;;;;;;;;5018958;28;20061;-71
2023/09/19 07:10:56;;;;;;;12.00;2.50;;;;;;;;;;5023444;28;20523;-70
2023/09/19 07:13:21;;;;;;;15.38;2.22;;;;;;;;;;5021822;28;20032;-70
2023/09/19 07:15:46;;;;;;;11.77;2.28;;;;;;;;;;5024135;28;20395;-70
2023/09/19 07:18:14;;;;;;;18.05;2.45;;;;;;;;;;5023726;28;20029;-70
2023/09/19 07:20:39;;;;;;;20.52;3.20;;;;;;;;;;5023638;28;20057;-70
2023/09/19 07:23:04;;;;;;;9.55;2.65;;;;;;;;;;5025940;28;20515;-70
2023/09/19 07:25:30;;;;;;;8.03;2.07;;;;;;;;;;5023143;28;20030;-70
2023/09/19 07:27:56;;;;;;;4.28;0.98;;;;;;;;;;5027369;28;20412;-70
2023/09/19 07:30:21;;;;;;;13.52;2.10;;;;;;;;;;5026204;28;20492;-70
2023/09/19 07:32:47;;;;;;;15.77;2.03;;;;;;;;;;5025840;28;20026;-70
2023/09/19 07:35:12;;;;;;;9.75;1.92;;;;;;;;;;5027496;28;20025;-70
2023/09/19 07:37:37;;;;;;;19.13;2.47;;;;;;;;;;5028617;28;20729;-70
2023/09/19 07:40:06;;;;;;;12.13;2.30;;;;;;;;;;5027646;28;20037;-70
2023/09/19 07:42:32;;;;;;;14.13;1.83;;;;;;;;;;5026684;28;20025;-70
2023/09/19 07:44:59;;;;;;;8.15;1.90;;;;;;;;;;5027186;28;20033;-70
2023/09/19 07:47:24;;;;;;;10.32;3.13;;;;;;;;;;5029274;28;20082;-71
2023/09/19 07:49:49;;;;;;;9.03;2.37;;;;;;;;;;5022752;28;20097;-70
2023/09/19 07:52:15;;;;;;;10.73;2.70;;;;;;;;;;5024678;28;20782;-71
2023/09/19 07:54:41;;;;;;;17.25;2.28;;;;;;;;;;5026879;28;20280;-70
2023/09/19 07:57:06;;;;;;;15.50;3.10;;;;;;;;;;5028135;28;20025;-71
2023/09/19 07:59:31;;;;;;;19.70;2.47;;;;;;;;;;5029840;28;20029;-71
2023/09/19 08:01:57;;;;;;;16.53;3.83;;;;;;;;;;5029456;28;20268;-70
2023/09/19 08:04:25;;;;;;;11.82;2.22;;;;;;;;;;5031526;28;20025;-72
2023/09/19 08:06:51;;;;;;;21.40;2.97;;;;;;;;;;5026905;28;20568;-71
2023/09/19 08:09:20;;;;;;;12.70;2.22;;;;;;;;;;5030770;28;20559;-71
2023/09/19 08:11:46;;;;;;;14.57;2.30;;;;;;;;;;5025045;28;20036;-71
2023/09/19 08:14:14;;;;;;;15.63;3.08;;;;;;;;;;5025310;28;20048;-71
2023/09/19 08:16:39;;;;;;;15.40;1.98;;;;;;;;;;5028678;28;20018;-71
2023/09/19 08:19:05;;;;;;;14.30;2.73;;;;;;;;;;5019896;28;20036;-71
2023/09/19 08:21:32;;;;;;;19.88;2.40;;;;;;;;;;5030689;28;20330;-71
2023/09/19 08:23:57;;;;;;;9.85;2.63;;;;;;;;;;5022361;28;20088;-71
2023/09/19 08:26:22;;;;;;;9.20;2.00;;;;;;;;;;5027398;28;20022;-71
2023/09/19 08:28:47;;;;;;;5.93;1.90;;;;;;;;;;5018350;28;20269;-71
2023/09/19 08:31:13;;;;;;;14.75;2.85;;;;;;;;;;5026003;28;20782;-71
2023/09/19 08:33:38;;;;;;;13.23;2.13;;;;;;;;;;5027142;28;20028;-71
2023/09/19 08:36:07;;;;;;;12.32;2.40;;;;;;;;;;5033350;28;20091;-71
2023/09/19 08:38:33;;;;;;;9.38;2.00;;;;;;;;;;5047356;28;20013;-71
2023/09/19 08:40:59;;;;;;;16.08;1.95;;;;;;;;;;5028481;28;20387;-70
2023/09/19 08:43:25;;;;;;;11.13;2.05;;;;;;;;;;5032090;28;20020;-71
2023/09/19 08:45:50;;;;;;;11.57;2.50;;;;;;;;;;5039470;28;20017;-71
2023/09/19 08:48:30;;;;;;;16.40;2.17;;;;;;;;;;5026247;28;20018;-70
2023/09/19 08:50:59;;;;;;;9.95;2.22;;;;;;;;;;5029376;28;20635;-72
2023/09/19 08:53:46;;;;;;;11.85;1.88;;;;;;;;;;5031482;28;20017;-70
2023/09/19 08:56:13;;;;;;;11.73;2.15;;;;;;;;;;5033773;28;20079;-70
2023/09/19 08:58:44;;;;;;;8.15;1.77;;;;;;;;;;5047503;28;20028;-71
2023/09/19 09:01:10;;;;;;;15.90;2.10;;;;;;;;;;5036644;28;20021;-71
2023/09/19 09:03:36;;;;;;;21.73;2.65;;;;;;;;;;5031149;28;20353;-71
2023/09/19 09:06:02;;;;;;;11.38;1.95;;;;;;;;;;5049317;28;20434;-71
2023/09/19 09:08:30;;;;;;;10.88;2.10;;;;;;;;;;5038707;28;20031;-71
2023/09/19 09:10:55;;;;;;;5.93;1.75;;;;;;;;;;5038202;28;20083;-71
2023/09/19 09:13:21;;;;;;;15.20;2.13;;;;;;;;;;5033607;28;20407;-71
2023/09/19 09:15:48;;;;;;;10.25;1.83;;;;;;;;;;5039138;28;20598;-71
2023/09/19 09:18:13;;;;;;;14.35;2.08;;;;;;;;;;5031934;28;20119;-71
2023/09/19 09:20:38;;;;;;;8.93;1.53;;;;;;;;;;5030118;28;20114;-71
2023/09/19 09:23:04;;;;;;;12.20;2.47;;;;;;;;;;5026936;28;20519;-71
2023/09/19 09:25:54;;;;;;;6.90;1.88;;;;;;;;;;5026842;28;20028;-71
2023/09/19 09:28:20;;;;;;;6.53;1.80;;;;;;;;;;5026581;28;20079;-71
2023/09/19 09:30:46;;;;;;;13.23;2.17;;;;;;;;;;5026216;28;20022;-70
2023/09/19 09:33:12;;;;;;;11.68;1.95;;;;;;;;;;5026446;28;20037;-70
2023/09/19 09:35:46;;;;;;;11.60;2.00;;;;;;;;;;5023471;28;20014;-71
2023/09/19 09:38:13;;;;;;;10.95;1.92;;;;;;;;;;5028506;28;20021;-71
2023/09/19 09:40:54;;;;;;;11.43;2.00;;;;;;;;;;5029379;28;20507;-71
2023/09/19 09:43:27;;;;;;;5.70;1.60;;;;;;;;;;5030488;28;20066;-71
2023/09/19 09:46:10;;;;;;;9.25;2.15;;;;;;;;;;5023959;28;20029;-71
2023/09/19 09:48:38;;;;;;;10.25;2.50;;;;;;;;;;5044937;28;20507;-71
2023/09/19 09:51:07;;;;;;;9.85;1.50;;;;;;;;;;5037011;28;20033;-71
2023/09/19 09:53:33;;;;;;;4.68;1.17;;;;;;;;;;5029052;28;20048;-71
2023/09/19 09:56:09;;;;;;;12.82;1.90;;;;;;;;;;5020858;28;20512;-71
2023/09/19 09:58:35;;;;;;;7.45;2.03;;;;;;;;;;5024318;28;20056;-71
2023/09/19 10:01:08;;;;;;;10.45;2.17;;;;;;;;;;5027912;28;20025;-71
2023/09/19 10:03:39;;;;;;;4.97;1.15;;;;;;;;;;5033334;28;20028;-71
2023/09/19 10:06:18;;;;;;;6.30;1.40;;;;;;;;;;5025736;28;20022;-71
2023/09/19 10:08:44;;;;;;;;;;;;;;;;;;5036346;28;20033;-71
2023/09/19 10:11:16;;;;;;;7.55;2.28;;;;;;;;;;5023732;28;19909;-71
2023/09/19 10:13:42;;;;;;;8.77;2.22;;;;;;;;;;5024396;28;20021;-71
2023/09/19 10:16:10;;;;;;;8.90;1.80;;;;;;;;;;5028525;28;20026;-71
2023/09/19 10:18:36;;;;;;;4.25;1.33;;;;;;;;;;5021866;28;20072;-72
2023/09/19 10:21:01;;;;;;;11.32;1.85;;;;;;;;;;5036198;28;20068;-71
2023/09/19 10:23:30;;;;;;;7.72;2.47;;;;;;;;;;5028663;28;20507;-73
2023/09/19 10:25:57;;;;;;;4.53;1.50;;;;;;;;;;5024253;28;20027;-71
2023/09/19 10:28:22;;;;;;;9.00;1.73;;;;;;;;;;5028770;28;20029;-73
2023/09/19 10:30:49;;;;;;;9.07;1.60;;;;;;;;;;5025181;28;20029;-72
2023/09/19 10:33:17;;;;;;;8.85;1.48;;;;;;;;;;5042116;28;20276;-71
2023/09/19 10:35:43;;;;;;;8.95;1.73;;;;;;;;;;5027152;28;20021;-72
2023/09/19 10:38:21;;;;;;;5.25;1.23;;;;;;;;;;5029962;28;20030;-72
2023/09/19 10:40:50;;;;;;;8.10;1.70;;;;;;;;;;5025020;28;20051;-72
2023/09/19 10:43:20;;;;;;;7.28;1.83;;;;;;;;;;5028886;28;20013;-72
2023/09/19 10:45:49;;;;;;;9.00;1.60;;;;;;;;;;5033302;28;20394;-72
2023/09/19 10:48:15;;;;;;;7.10;1.40;;;;;;;;;;5039691;28;20511;-72
2023/09/19 10:50:45;;;;;;;7.95;1.70;;;;;;;;;;5032073;28;20021;-72
2023/09/19 10:53:11;;;;;;;6.35;1.50;;;;;;;;;;5038550;28;20017;-73
2023/09/19 10:55:37;;;;;;;6.55;1.90;;;;;;;;;;5028778;28;20021;-72
2023/09/19 10:58:13;;;;;;;7.55;1.67;;;;;;;;;;5030740;28;20067;-72
2023/09/19 11:00:50;;;;;;;9.48;1.52;;;;;;;;;;5021796;28;20029;-72
2023/09/19 11:03:18;;;;;;;7.05;1.83;;;;;;;;;;5029064;28;20021;-72
2023/09/19 11:05:59;;;;;;;5.47;0.85;;;;;;;;;;5039383;28;20468;-72
2023/09/19 11:08:24;;;;;;;5.05;1.50;;;;;;;;;;5022818;28;20096;-73
2023/09/19 11:10:51;;;;;;;9.52;2.13;;;;;;;;;;5023694;28;20420;-72
2023/09/19 11:13:26;;;;;;;6.85;2.25;;;;;;;;;;5031658;28;20104;-72
2023/09/19 11:15:57;;;;;;;11.05;1.90;;;;;;;;;;5023894;28;20029;-72
2023/09/19 11:18:40;;;;;;;5.47;1.60;;;;;;;;;;5036296;28;20031;-72
2023/09/19 11:21:24;;;;;;;9.63;1.40;;;;;;;;;;5042742;28;20017;-73
2023/09/19 11:24:09;;;;;;;7.72;1.58;;;;;;;;;;5048261;28;20108;-72
2023/09/19 11:26:47;;;;;;;10.07;1.85;;;;;;;;;;5028886;28;20063;-72
2023/09/19 11:29:29;;;;;;;9.43;2.22;;;;;;;;;;5026992;28;20025;-73
2023/09/19 11:31:55;;;;;;;10.07;1.52;;;;;;;;;;5028787;28;21912;-72
2023/09/19 11:34:35;;;;;;;9.57;1.60;;;;;;;;;;5033360;28;20684;-72
2023/09/19 11:37:01;;;;;;;5.43;1.52;;;;;;;;;;5024102;28;20035;-71
2023/09/19 11:39:27;;;;;;;7.47;1.50;;;;;;;;;;5025947;28;20026;-72
2023/09/19 11:41:56;;;;;;;4.80;1.40;;;;;;;;;;5029011;28;20017;-72
2023/09/19 11:44:30;;;;;;;5.30;1.60;;;;;;;;;;5027716;28;20040;-73
2023/09/19 11:46:58;;;;;;;5.95;2.08;;;;;;;;;;5025277;28;20400;-72
2023/09/19 11:49:30;;;;;;;8.35;2.00;;;;;;;;;;5025831;28;20024;-74
2023/09/19 11:51:55;;;;;;;9.02;2.00;;;;;;;;;;5027242;28;20018;-72
2023/09/19 11:54:27;;;;;;;15.73;3.05;;;;;;;;;;5025763;28;20017;-72
2023/09/19 11:56:54;;;;;;;8.63;3.65;;;;;;;;;;5023361;28;20025;-72
2023/09/19 11:59:23;;;;;;;10.77;2.80;;;;;;;;;;5028264;28;20048;-72
2023/09/19 12:01:56;;;;;;;5.47;1.60;;;;;;;;;;5037415;28;20021;-73
2023/09/19 12:04:32;;;;;;;8.07;1.83;;;;;;;;;;5031380;28;20033;-73
2023/09/19 12:06:58;;;;;;;9.02;1.88;;;;;;;;;;5031065;28;20152;-73
2023/09/19 12:09:24;;;;;;;9.45;2.03;;;;;;;;;;5027745;28;20097;-72
2023/09/19 12:11:51;;;;;;;7.88;2.25;;;;;;;;;;5018823;28;20395;-73
2023/09/19 12:14:24;;;;;;;7.13;2.03;;;;;;;;;;5019716;28;20468;-72
2023/09/19 12:16:56;;;;;;;6.15;1.63;;;;;;;;;;5030549;28;20032;-72
2023/09/19 12:19:22;;;;;;;9.00;1.80;;;;;;;;;;5031183;28;20402;-73
2023/09/19 12:22:04;;;;;;;5.00;1.65;;;;;;;;;;5037631;28;20479;-73
2023/09/19 12:24:29;;;;;;;6.85;1.48;;;;;;;;;;5026070;28;20070;-72
2023/09/19 12:27:01;;;;;;;6.55;2.03;;;;;;;;;;5030111;28;20033;-72
2023/09/19 12:29:27;;;;;;;11.13;1.90;;;;;;;;;;5023217;28;20023;-73
2023/09/19 12:31:57;;;;;;;9.35;1.70;;;;;;;;;;5024159;28;20388;-73
2023/09/19 12:34:34;;;;;;;38.28;4.03;;;;;;;;;;5023474;28;20020;-72
2023/09/19 12:37:21;;;;;;;8.75;1.58;;;;;;;;;;5022905;28;20025;-72
2023/09/19 12:39:52;;;;;;;9.02;2.00;;;;;;;;;;5014539;28;20468;-72
2023/09/19 12:42:19;;;;;;;7.13;1.27;;;;;;;;;;5024983;28;20029;-72
2023/09/19 12:44:46;;;;;;;6.55;1.40;;;;;;;;;;5024003;28;20119;-72
2023/09/19 12:47:15;;;;;;;5.10;1.73;;;;;;;;;;5024462;28;20021;-73
2023/09/19 12:49:59;;;;;;;4.27;1.50;;;;;;;;;;5035739;28;20041;-73
2023/09/19 12:52:25;;;;;;;6.97;1.92;;;;;;;;;;5024919;28;20044;-73
2023/09/19 12:54:51;;;;;;;3.72;0.70;;;;;;;;;;5028033;28;20068;-75
2023/09/19 12:57:25;;;;;;;9.23;1.73;;;;;;;;;;5022176;28;20021;-72
2023/09/19 12:59:52;;;;;;;1.42;0.57;;;;;;;;;;5021507;28;20774;-74
2023/09/19 13:02:20;;;;;;;5.70;1.60;;;;;;;;;;5020646;28;20037;-74
2023/09/19 13:04:51;;;;;;;7.55;1.13;;;;;;;;;;5026788;28;20442;-74
2023/09/19 13:07:36;;;;;;;4.82;1.33;;;;;;;;;;5026713;28;20383;-73
2023/09/19 13:10:04;;;;;;;5.18;0.73;;;;;;;;;;5025180;28;20018;-73
2023/09/19 13:12:36;;;;;;;5.60;1.10;;;;;;;;;;5029029;28;20032;-73
2023/09/19 13:15:13;;;;;;;3.83;1.05;;;;;;;;;;5017821;28;20385;-73
2023/09/19 13:17:45;;;;;;;5.63;1.40;;;;;;;;;;5030327;28;20040;-73
2023/09/19 13:20:22;;;;;;;4.90;1.58;;;;;;;;;;5028894;28;20028;-73
2023/09/19 13:22:54;;;;;;;7.68;1.65;;;;;;;;;;5038959;28;20104;-74
2023/09/19 13:25:20;;;;;;;3.58;1.15;;;;;;;;;;5045782;28;20434;-73
2023/09/19 13:27:48;;;;;;;9.05;1.92;;;;;;;;;;5039168;28;20020;-74
2023/09/19 13:30:13;;;;;;;4.50;1.30;;;;;;;;;;5027623;28;20551;-73
2023/09/19 13:32:40;;;;;;;4.70;1.13;;;;;;;;;;5029805;28;20132;-73
2023/09/19 13:35:08;;;;;;;3.13;1.00;;;;;;;;;;5044054;28;20395;-73
2023/09/19 13:37:35;;;;;;;10.93;1.25;;;;;;;;;;5045933;28;20507;-73
2023/09/19 13:40:01;;;;;;;6.40;1.25;;;;;;;;;;5027950;28;20033;-72
2023/09/19 13:42:29;;;;;;;5.25;0.90;;;;;;;;;;5027955;28;20036;-73
2023/09/19 13:44:54;;;;;;;3.88;0.90;;;;;;;;;;5029238;28;20104;-73
2023/09/19 13:47:24;;;;;;;7.63;1.67;;;;;;;;;;5026485;28;20101;-73
2023/09/19 13:49:50;;;;;;;7.18;1.02;;;;;;;;;;5028956;28;20275;-74
2023/09/19 13:52:15;;;;;;;4.80;1.50;;;;;;;;;;5027340;28;20021;-73
2023/09/19 13:54:41;;;;;;;2.95;0.90;;;;;;;;;;5035179;28;20020;-73
2023/09/19 13:57:07;;;;;;;3.92;1.02;;;;;;;;;;5025136;28;20028;-73
2023/09/19 13:59:32;;;;;;;3.20;1.17;;;;;;;;;;5021736;28;20021;-73
2023/09/19 14:01:57;;;;;;;6.18;1.27;;;;;;;;;;5026044;28;20101;-72
2023/09/19 14:04:23;;;;;;;7.00;1.20;;;;;;;;;;5028678;28;20060;-72
2023/09/19 14:06:48;;;;;;;7.43;1.15;;;;;;;;;;5027175;28;20288;-73
2023/09/19 14:09:13;;;;;;;3.63;1.30;;;;;;;;;;5027271;28;20025;-73
2023/09/19 14:11:38;;;;;;;7.70;0.82;;;;;;;;;;5026793;28;20051;-73
2023/09/19 14:14:04;;;;;;;3.40;1.38;;;;;;;;;;5031443;28;20032;-73
2023/09/19 14:16:30;;;;;;;6.22;1.17;;;;;;;;;;5029932;28;20017;-73
2023/09/19 14:18:56;;;;;;;6.57;1.20;;;;;;;;;;5023401;28;20744;-73
2023/09/19 14:21:21;;;;;;;4.93;1.30;;;;;;;;;;5025640;28;20021;-73
2023/09/19 14:23:46;;;;;;;5.27;0.87;;;;;;;;;;5031012;28;20032;-74
2023/09/19 14:26:11;;;;;;;6.27;1.30;;;;;;;;;;5026422;28;20268;-73
2023/09/19 14:28:38;;;;;;;4.20;0.98;;;;;;;;;;5024686;28;20276;-73
2023/09/19 14:31:07;;;;;;;1.48;0.35;;;;;;;;;;5025292;28;20017;-73
2023/09/19 14:33:32;;;;;;;6.95;0.73;;;;;;;;;;5025943;28;20010;-73
2023/09/19 14:35:57;;;;;;;9.38;1.30;;;;;;;;;;5023975;28;20022;-73
2023/09/19 14:38:22;;;;;;;4.40;1.00;;;;;;;;;;5024542;28;20072;-73